Time;durP1;ratioP1;P1;durP2;ratioP2;P2;SDS_P1;SDS_P2;PMS_P1;PMS_P2;Temp;Humidity;BMP_temperature;BMP_pressure;BME280_temperature;BME280_humidity;BME280_pressure;Samples;Min_cycle;Max_cycle;Signal;HPM_P1;HPM_P2
2022/12/01 00:03:02;;;;;;;;;;;5.00;99.90;;;;;;12340299;28;19930;-36
2022/12/01 00:15:26;;;;;;;;;;;5.10;99.90;;;;;;12355040;28;19929;-37
2022/12/01 00:21:28;;;;;;;;;;;5.10;99.90;;;;;;12358042;28;19934;-37
2022/12/01 00:27:30;;;;;;;;;;;5.10;99.90;;;;;;12344361;28;19937;-36
2022/12/01 00:33:32;;;;;;;;;;;5.10;99.90;;;;;;12342006;28;19941;-36
2022/12/01 00:39:34;;;;;;;;;;;5.00;99.90;;;;;;12345855;28;19926;-37
2022/12/01 00:45:36;;;;;;;;;;;5.10;99.90;;;;;;12346861;28;20065;-37
2022/12/01 00:51:38;;;;;;;;;;;5.00;99.90;;;;;;12346707;28;19926;-36
2022/12/01 00:57:40;;;;;;;;;;;5.10;99.90;;;;;;12348160;28;19933;-37
2022/12/01 01:03:42;;;;;;;;;;;5.10;99.90;;;;;;12328294;28;20442;-37
2022/12/01 01:09:43;;;;;;;;;;;5.00;99.90;;;;;;12349287;28;19926;-36
2022/12/01 01:15:55;;;;;;;;;;;5.00;99.90;;;;;;12337500;28;19930;-37
2022/12/01 01:21:56;;;;;;;;;;;5.00;99.90;;;;;;12346082;28;20372;-38
2022/12/01 01:27:58;;;;;;;;;;;5.00;99.90;;;;;;12345903;28;19937;-37
2022/12/01 01:34:00;;;;;;;;;;;5.00;99.90;;;;;;12331923;28;19930;-36
2022/12/01 01:40:02;;;;;;;;;;;5.00;99.90;;;;;;12344000;28;19961;-36
2022/12/01 01:46:05;;;;;;;;;;;5.00;99.90;;;;;;12345562;28;19959;-37
2022/12/01 01:52:07;;;;;;;;;;;4.90;99.90;;;;;;12341162;28;19926;-36
2022/12/01 01:58:09;;;;;;;;;;;4.90;99.90;;;;;;12347168;28;20290;-36
2022/12/01 02:04:11;;;;;;;;;;;4.90;99.90;;;;;;12344464;28;20445;-37
2022/12/01 02:10:21;;;;;;;;;;;4.90;99.90;;;;;;12344908;28;19930;-36
2022/12/01 02:16:41;;;;;;;;;;;4.90;99.90;;;;;;12344001;28;19930;-36
2022/12/01 02:22:53;;;;;;;;;;;4.90;99.90;;;;;;12337981;28;19926;-36
2022/12/01 02:28:57;;;;;;;;;;;4.90;99.90;;;;;;12342979;28;19927;-37
2022/12/01 02:35:05;;;;;;;;;;;4.90;99.90;;;;;;12339683;28;19937;-36
2022/12/01 02:41:20;;;;;;;;;;;4.80;99.90;;;;;;12346895;28;20393;-36
2022/12/01 02:47:22;;;;;;;;;;;4.90;99.90;;;;;;12345109;28;20375;-37
2022/12/01 02:53:24;;;;;;;;;;;4.90;99.90;;;;;;12351376;28;19926;-36
2022/12/01 02:59:26;;;;;;;;;;;4.90;99.90;;;;;;12346178;28;19926;-36
2022/12/01 03:05:51;;;;;;;;;;;4.90;99.90;;;;;;12351776;28;19930;-36
2022/12/01 03:11:57;;;;;;;;;;;4.80;99.90;;;;;;12340505;28;19937;-36
2022/12/01 03:17:59;;;;;;;;;;;4.80;99.90;;;;;;12345546;28;19927;-36
2022/12/01 03:24:08;;;;;;;;;;;4.80;99.90;;;;;;12343889;28;19985;-36
2022/12/01 03:30:10;;;;;;;;;;;4.80;99.90;;;;;;12344857;28;19972;-37
2022/12/01 03:36:15;;;;;;;;;;;4.80;99.90;;;;;;12350442;28;20286;-36
2022/12/01 03:42:21;;;;;;;;;;;4.70;99.90;;;;;;12339336;28;20381;-36
2022/12/01 03:48:23;;;;;;;;;;;4.70;99.90;;;;;;12357646;28;20329;-37
2022/12/01 03:54:25;;;;;;;;;;;4.70;99.90;;;;;;12347049;28;20024;-36
2022/12/01 04:00:28;;;;;;;;;;;4.70;99.90;;;;;;12348028;28;19926;-36
2022/12/01 04:06:29;;;;;;;;;;;4.70;99.90;;;;;;12347391;28;20137;-36
2022/12/01 04:12:34;;;;;;;;;;;4.70;99.90;;;;;;12349905;28;19933;-36
2022/12/01 04:18:36;;;;;;;;;;;4.70;99.90;;;;;;12336306;28;19949;-36
2022/12/01 04:24:38;;;;;;;;;;;4.60;99.90;;;;;;12342255;28;19926;-36
2022/12/01 04:30:39;;;;;;;;;;;4.60;99.90;;;;;;12346808;28;19926;-36
2022/12/01 04:36:41;;;;;;;;;;;4.60;99.90;;;;;;12347040;28;20341;-36
2022/12/01 04:42:43;;;;;;;;;;;4.60;99.90;;;;;;12346308;28;19957;-36
2022/12/01 04:48:45;;;;;;;;;;;4.50;99.90;;;;;;12328834;28;19926;-36
2022/12/01 04:54:47;;;;;;;;;;;4.50;99.90;;;;;;12340451;28;20389;-36
2022/12/01 05:00:49;;;;;;;;;;;4.50;99.90;;;;;;12338355;28;19927;-36
2022/12/01 05:06:52;;;;;;;;;;;4.40;99.90;;;;;;12345712;28;20429;-36
2022/12/01 05:12:56;;;;;;;;;;;4.50;99.90;;;;;;12356278;28;19926;-36
2022/12/01 05:25:22;;;;;;;;;;;4.40;99.90;;;;;;12337073;28;19931;-36
2022/12/01 05:31:24;;;;;;;;;;;4.30;99.90;;;;;;12336353;28;19926;-36
2022/12/01 05:37:31;;;;;;;;;;;4.40;99.90;;;;;;12329379;28;19965;-36
2022/12/01 05:43:32;;;;;;;;;;;4.40;99.90;;;;;;12333851;28;19984;-37
2022/12/01 05:49:34;;;;;;;;;;;4.40;99.90;;;;;;12336139;28;19985;-36
2022/12/01 05:55:36;;;;;;;;;;;4.30;99.90;;;;;;12330005;28;20381;-36
2022/12/01 06:01:38;;;;;;;;;;;4.30;99.90;;;;;;12331189;28;20371;-36
2022/12/01 06:07:40;;;;;;;;;;;4.30;99.90;;;;;;12335616;28;19926;-37
2022/12/01 06:13:42;;;;;;;;;;;4.30;99.90;;;;;;12332931;28;20287;-36
2022/12/01 06:19:44;;;;;;;;;;;4.30;99.90;;;;;;12329274;28;19930;-36
2022/12/01 06:25:46;;;;;;;;;;;4.30;99.90;;;;;;12342241;28;20275;-37
2022/12/01 06:31:48;;;;;;;;;;;4.20;99.90;;;;;;12347215;28;19937;-37
2022/12/01 06:37:51;;;;;;;;;;;4.20;99.90;;;;;;12346976;28;20392;-36
2022/12/01 06:43:53;;;;;;;;;;;4.20;99.90;;;;;;12334917;28;19930;-36
2022/12/01 06:49:55;;;;;;;;;;;4.20;99.90;;;;;;12338430;28;19930;-36
2022/12/01 06:56:00;;;;;;;;;;;4.20;99.90;;;;;;12318244;28;19933;-38
2022/12/01 07:02:03;;;;;;;;;;;4.20;99.90;;;;;;12353502;28;19929;-36
2022/12/01 07:08:05;;;;;;;;;;;4.10;99.90;;;;;;12342369;28;20305;-36
2022/12/01 07:14:13;;;;;;;;;;;4.10;99.90;;;;;;12350470;28;19938;-36
2022/12/01 07:20:15;;;;;;;;;;;4.00;99.90;;;;;;12333732;28;19976;-36
2022/12/01 07:26:17;;;;;;;;;;;4.00;99.90;;;;;;12332037;28;19926;-36
2022/12/01 07:32:19;;;;;;;;;;;4.00;99.90;;;;;;12334926;28;19938;-36
2022/12/01 07:38:20;;;;;;;;;;;4.00;99.90;;;;;;12325033;28;20459;-36
2022/12/01 07:44:23;;;;;;;;;;;4.00;99.90;;;;;;12335141;28;20323;-37
2022/12/01 07:50:24;;;;;;;;;;;4.10;99.90;;;;;;12335704;28;20030;-36
2022/12/01 07:56:26;;;;;;;;;;;4.00;99.90;;;;;;12336881;28;20162;-36
2022/12/01 08:02:28;;;;;;;;;;;4.10;99.90;;;;;;12336665;28;19960;-36
2022/12/01 08:08:31;;;;;;;;;;;4.10;99.90;;;;;;12338420;28;19996;-36
2022/12/01 08:14:33;;;;;;;;;;;4.10;99.90;;;;;;12335556;28;19965;-37
2022/12/01 08:20:34;;;;;;;;;;;4.10;99.90;;;;;;12337200;28;20297;-36
2022/12/01 08:26:36;;;;;;;;;;;4.10;99.90;;;;;;12338097;28;20370;-36
2022/12/01 08:32:38;;;;;;;;;;;4.00;99.90;;;;;;12343010;28;20290;-36
2022/12/01 08:38:43;;;;;;;;;;;4.20;99.90;;;;;;12335129;28;19929;-36
2022/12/01 08:44:45;;;;;;;;;;;4.20;99.90;;;;;;12335692;28;20407;-37
2022/12/01 08:50:47;;;;;;;;;;;4.20;99.90;;;;;;12337974;28;20241;-36
2022/12/01 08:56:49;;;;;;;;;;;4.20;99.90;;;;;;12331250;28;19933;-36
2022/12/01 09:02:51;;;;;;;;;;;4.00;99.90;;;;;;12333433;28;20003;-36
2022/12/01 09:08:54;;;;;;;;;;;3.90;99.90;;;;;;12344828;28;20290;-36
2022/12/01 09:14:56;;;;;;;;;;;3.90;99.90;;;;;;12326043;28;20378;-36
2022/12/01 09:20:58;;;;;;;;;;;4.00;99.90;;;;;;12331729;28;19945;-36
2022/12/01 09:27:02;;;;;;;;;;;4.10;99.90;;;;;;12335423;28;19926;-36
2022/12/01 09:33:04;;;;;;;;;;;4.10;99.90;;;;;;12338034;28;19941;-36
2022/12/01 09:39:06;;;;;;;;;;;4.20;99.90;;;;;;12330978;28;19969;-37
2022/12/01 09:45:16;;;;;;;;;;;3.90;99.90;;;;;;12328738;28;19926;-36
2022/12/01 09:51:20;;;;;;;;;;;3.70;99.90;;;;;;12336748;28;20073;-36
2022/12/01 09:57:21;;;;;;;;;;;4.20;99.90;;;;;;12344853;28;20353;-36
2022/12/01 10:03:28;;;;;;;;;;;4.30;99.90;;;;;;12341536;28;19937;-36
2022/12/01 10:09:51;;;;;;;;;;;4.40;99.90;;;;;;12339723;28;19933;-37
2022/12/01 10:15:53;;;;;;;;;;;4.50;99.90;;;;;;12334217;28;20317;-36
2022/12/01 10:22:12;;;;;;;;;;;4.40;99.90;;;;;;12347266;28;19933;-36
2022/12/01 10:28:17;;;;;;;;;;;4.40;99.90;;;;;;12343013;28;19930;-37
2022/12/01 10:34:19;;;;;;;;;;;4.50;99.90;;;;;;12338276;28;20290;-36
2022/12/01 10:40:21;;;;;;;;;;;4.70;99.90;;;;;;12341434;28;19926;-36
2022/12/01 10:46:38;;;;;;;;;;;4.40;99.90;;;;;;12328142;28;20841;-36
2022/12/01 10:52:40;;;;;;;;;;;4.70;99.90;;;;;;12330581;28;19934;-36
2022/12/01 10:58:50;;;;;;;;;;;4.80;99.90;;;;;;12336563;28;19930;-37
2022/12/01 11:04:52;;;;;;;;;;;4.60;99.90;;;;;;12340609;28;19983;-36
2022/12/01 11:10:54;;;;;;;;;;;4.50;99.90;;;;;;12346995;28;20045;-36
2022/12/01 11:16:55;;;;;;;;;;;4.60;99.90;;;;;;12335257;28;20037;-36
2022/12/01 11:23:16;;;;;;;;;;;4.70;99.90;;;;;;12335823;28;19933;-36
2022/12/01 11:29:34;;;;;;;;;;;5.00;99.90;;;;;;12340601;28;19926;-37
2022/12/01 11:35:37;;;;;;;;;;;5.10;99.90;;;;;;12340854;28;19953;-36
2022/12/01 11:41:39;;;;;;;;;;;4.90;99.90;;;;;;12334837;28;20346;-36
2022/12/01 11:48:00;;;;;;;;;;;5.00;99.90;;;;;;12346468;28;19930;-36
2022/12/01 11:54:20;;;;;;;;;;;4.90;99.90;;;;;;12344668;28;20346;-37
2022/12/01 12:00:23;;;;;;;;;;;4.90;99.90;;;;;;12321207;28;19926;-36
2022/12/01 12:06:31;;;;;;;;;;;4.90;99.90;;;;;;12318330;28;20329;-36
2022/12/01 12:12:44;;;;;;;;;;;4.90;99.90;;;;;;12339469;28;19965;-38
2022/12/01 12:19:00;;;;;;;;;;;5.00;99.90;;;;;;12331999;28;19933;-36
2022/12/01 12:25:21;;;;;;;;;;;5.00;99.90;;;;;;12339583;28;20386;-36
2022/12/01 12:31:44;;;;;;;;;;;4.70;99.90;;;;;;12330139;28;19934;-37
2022/12/01 12:38:10;;;;;;;;;;;4.70;99.90;;;;;;12323494;28;19935;-36
2022/12/01 12:44:12;;;;;;;;;;;4.80;99.90;;;;;;12339990;28;19927;-36
2022/12/01 12:50:13;;;;;;;;;;;4.70;99.90;;;;;;12330361;28;19934;-36
2022/12/01 12:56:17;;;;;;;;;;;4.70;99.90;;;;;;12339527;28;19926;-36
2022/12/01 13:02:22;;;;;;;;;;;4.70;99.90;;;;;;12332371;28;19948;-36
2022/12/01 13:08:33;;;;;;;;;;;4.70;99.90;;;;;;12335930;28;19988;-36
2022/12/01 13:14:37;;;;;;;;;;;4.70;99.90;;;;;;12333342;28;19930;-36
2022/12/01 13:20:39;;;;;;;;;;;4.80;99.90;;;;;;12330705;28;19927;-36
2022/12/01 13:26:42;;;;;;;;;;;4.70;99.90;;;;;;12325054;28;19933;-36
2022/12/01 13:32:44;;;;;;;;;;;4.70;99.90;;;;;;12334667;28;19937;-36
2022/12/01 13:38:56;;;;;;;;;;;4.60;99.90;;;;;;12329962;28;20400;-36
2022/12/01 13:44:59;;;;;;;;;;;4.50;99.90;;;;;;12331575;28;20025;-36
2022/12/01 13:51:02;;;;;;;;;;;4.50;99.90;;;;;;12338855;28;20306;-36
2022/12/01 13:57:09;;;;;;;;;;;4.40;99.90;;;;;;12338618;28;19930;-36
2022/12/01 14:03:11;;;;;;;;;;;4.30;99.90;;;;;;12325201;28;19930;-36
2022/12/01 14:09:27;;;;;;;;;;;4.20;99.90;;;;;;12334143;28;19980;-36
2022/12/01 14:15:29;;;;;;;;;;;4.20;99.90;;;;;;12328986;28;20409;-36
2022/12/01 14:21:42;;;;;;;;;;;4.00;99.90;;;;;;12329324;28;19969;-36
2022/12/01 14:27:44;;;;;;;;;;;3.90;99.90;;;;;;12332886;28;19930;-36
2022/12/01 14:33:51;;;;;;;;;;;3.90;99.90;;;;;;12334981;28;19932;-36
2022/12/01 14:39:57;;;;;;;;;;;3.90;99.90;;;;;;12334186;28;19930;-36
2022/12/01 14:46:06;;;;;;;;;;;3.80;99.90;;;;;;12339881;28;19976;-36
2022/12/01 14:52:14;;;;;;;;;;;3.70;99.90;;;;;;12345378;28;19980;-36
2022/12/01 14:58:18;;;;;;;;;;;3.60;99.90;;;;;;12338699;28;20374;-36
2022/12/01 15:04:20;;;;;;;;;;;3.60;99.90;;;;;;12335615;28;19974;-36
2022/12/01 15:10:22;;;;;;;;;;;3.60;99.90;;;;;;12344824;28;19926;-36
2022/12/01 15:16:27;;;;;;;;;;;3.50;99.90;;;;;;12334616;28;19937;-36
2022/12/01 15:22:30;;;;;;;;;;;3.40;99.90;;;;;;12331212;28;20310;-37
2022/12/01 15:28:33;;;;;;;;;;;3.40;99.90;;;;;;12332706;28;19934;-36
2022/12/01 15:34:36;;;;;;;;;;;3.50;99.90;;;;;;12344015;28;19938;-36
2022/12/01 15:40:39;;;;;;;;;;;3.60;99.90;;;;;;12340501;28;19926;-36
2022/12/01 15:47:19;;;;;;;;;;;3.50;99.90;;;;;;12340591;28;19988;-37
2022/12/01 15:53:26;;;;;;;;;;;3.40;99.90;;;;;;12343313;28;19949;-36
2022/12/01 15:59:28;;;;;;;;;;;3.40;99.90;;;;;;12342070;28;19926;-37
2022/12/01 16:05:34;;;;;;;;;;;3.40;99.90;;;;;;12338926;28;19926;-36
2022/12/01 16:11:35;;;;;;;;;;;3.30;99.90;;;;;;12340668;28;19926;-36
2022/12/01 16:17:43;;;;;;;;;;;3.30;99.90;;;;;;12338531;28;19993;-36
2022/12/01 16:23:44;;;;;;;;;;;3.20;99.90;;;;;;12342497;28;19930;-36
2022/12/01 16:29:51;;;;;;;;;;;3.10;99.90;;;;;;12339815;28;19926;-36
2022/12/01 16:35:54;;;;;;;;;;;3.10;99.90;;;;;;12339756;28;19932;-36
2022/12/01 16:41:58;;;;;;;;;;;3.10;99.90;;;;;;12340330;28;19933;-36
2022/12/01 16:47:59;;;;;;;;;;;3.00;99.90;;;;;;12338213;28;20078;-36
2022/12/01 16:54:09;;;;;;;;;;;3.00;99.90;;;;;;12340102;28;19930;-36
2022/12/01 17:00:11;;;;;;;;;;;3.10;99.90;;;;;;12338351;28;20013;-36
2022/12/01 17:06:15;;;;;;;;;;;3.00;99.90;;;;;;12333341;28;19926;-37
2022/12/01 17:12:16;;;;;;;;;;;3.10;99.90;;;;;;12341983;28;19926;-36
2022/12/01 17:18:19;;;;;;;;;;;3.10;99.90;;;;;;12335165;28;20341;-36
2022/12/01 17:24:20;;;;;;;;;;;3.10;99.90;;;;;;12337714;28;19937;-36
2022/12/01 17:30:22;;;;;;;;;;;3.10;99.90;;;;;;12338670;28;19965;-36
2022/12/01 17:36:24;;;;;;;;;;;3.00;99.90;;;;;;12341651;28;19946;-36
2022/12/01 17:42:26;;;;;;;;;;;3.00;99.90;;;;;;12335566;28;19930;-36
2022/12/01 17:48:28;;;;;;;;;;;3.00;99.90;;;;;;12339309;28;19927;-36
2022/12/01 17:54:30;;;;;;;;;;;3.10;99.90;;;;;;12316942;28;19930;-36
2022/12/01 18:00:32;;;;;;;;;;;3.10;99.90;;;;;;12343013;28;19926;-36
2022/12/01 18:06:33;;;;;;;;;;;3.10;99.90;;;;;;12339143;28;19937;-36
2022/12/01 18:12:35;;;;;;;;;;;3.00;99.90;;;;;;12343164;28;20259;-36
2022/12/01 18:18:37;;;;;;;;;;;3.10;99.90;;;;;;12317024;28;19942;-36
2022/12/01 18:24:39;;;;;;;;;;;3.10;99.90;;;;;;12331589;28;20256;-36
2022/12/01 18:30:41;;;;;;;;;;;3.00;99.90;;;;;;12343218;28;19927;-37
2022/12/01 18:36:42;;;;;;;;;;;3.10;99.90;;;;;;12337836;28;19930;-36
2022/12/01 18:42:45;;;;;;;;;;;3.10;99.90;;;;;;12339986;28;19930;-36
2022/12/01 18:48:51;;;;;;;;;;;3.00;99.90;;;;;;12341212;28;19926;-36
2022/12/01 18:54:53;;;;;;;;;;;3.00;99.90;;;;;;12331355;28;20016;-36
2022/12/01 19:00:55;;;;;;;;;;;3.00;99.90;;;;;;12339731;28;19930;-36
2022/12/01 19:06:56;;;;;;;;;;;3.00;99.90;;;;;;12322828;28;20321;-36
2022/12/01 19:12:58;;;;;;;;;;;3.00;99.90;;;;;;12345042;28;19926;-36
2022/12/01 19:19:00;;;;;;;;;;;3.00;99.90;;;;;;12344154;28;20453;-36
2022/12/01 19:25:02;;;;;;;;;;;2.90;99.90;;;;;;12340439;28;19986;-36
2022/12/01 19:31:05;;;;;;;;;;;2.90;99.90;;;;;;12339014;28;19926;-36
2022/12/01 19:37:07;;;;;;;;;;;3.00;99.90;;;;;;12341743;28;20003;-36
2022/12/01 19:43:09;;;;;;;;;;;3.00;99.90;;;;;;12329344;28;19934;-36
2022/12/01 19:49:11;;;;;;;;;;;3.10;99.90;;;;;;12346470;28;20405;-36
2022/12/01 19:55:12;;;;;;;;;;;3.00;99.90;;;;;;12336298;28;19934;-36
2022/12/01 20:01:15;;;;;;;;;;;3.00;99.90;;;;;;12339182;28;19926;-36
2022/12/01 20:07:17;;;;;;;;;;;2.90;99.90;;;;;;12335076;28;19933;-36
2022/12/01 20:13:19;;;;;;;;;;;3.00;99.90;;;;;;12331806;28;19934;-36
2022/12/01 20:19:21;;;;;;;;;;;3.00;99.90;;;;;;12336313;28;19926;-36
2022/12/01 20:25:22;;;;;;;;;;;3.00;99.90;;;;;;12342202;28;19926;-36
2022/12/01 20:31:25;;;;;;;;;;;2.90;99.90;;;;;;12337600;28;19937;-37
2022/12/01 20:37:27;;;;;;;;;;;2.80;99.90;;;;;;12339957;28;19926;-36
2022/12/01 20:43:29;;;;;;;;;;;2.80;99.90;;;;;;12339420;28;19930;-37
2022/12/01 20:49:30;;;;;;;;;;;2.80;99.90;;;;;;12337115;28;20398;-36
2022/12/01 20:55:33;;;;;;;;;;;2.80;99.90;;;;;;12326136;28;20266;-36
2022/12/01 21:01:35;;;;;;;;;;;2.80;99.90;;;;;;12338734;28;19937;-36
2022/12/01 21:07:36;;;;;;;;;;;2.80;99.90;;;;;;12335297;28;20017;-36
2022/12/01 21:13:40;;;;;;;;;;;2.80;99.90;;;;;;12323078;28;20077;-36
2022/12/01 21:20:00;;;;;;;;;;;2.80;99.90;;;;;;12332414;28;19930;-36
2022/12/01 21:26:07;;;;;;;;;;;2.80;99.90;;;;;;12333009;28;19927;-37
2022/12/01 21:32:22;;;;;;;;;;;2.80;99.90;;;;;;12336559;28;19937;-37
2022/12/01 21:38:24;;;;;;;;;;;2.80;99.90;;;;;;12333977;28;19930;-36
2022/12/01 21:44:31;;;;;;;;;;;2.80;99.90;;;;;;12334063;28;19988;-36
2022/12/01 21:50:33;;;;;;;;;;;2.80;99.90;;;;;;12348134;28;19926;-36
2022/12/01 21:56:34;;;;;;;;;;;2.80;99.90;;;;;;12345232;28;19944;-36
2022/12/01 22:02:47;;;;;;;;;;;2.90;99.90;;;;;;12346496;28;19930;-36
2022/12/01 22:08:53;;;;;;;;;;;2.80;99.90;;;;;;12338649;28;20061;-36
2022/12/01 22:14:58;;;;;;;;;;;2.80;99.90;;;;;;12338546;28;19930;-36
2022/12/01 22:21:07;;;;;;;;;;;2.70;99.90;;;;;;12339160;28;19926;-36
2022/12/01 22:27:12;;;;;;;;;;;2.70;99.90;;;;;;12345906;28;19927;-36
2022/12/01 22:33:21;;;;;;;;;;;2.60;99.90;;;;;;12345427;28;20433;-36
2022/12/01 22:39:32;;;;;;;;;;;2.70;99.90;;;;;;12339830;28;19934;-36
2022/12/01 22:45:34;;;;;;;;;;;2.70;99.90;;;;;;12340294;28;20017;-36
2022/12/01 22:51:45;;;;;;;;;;;2.70;99.90;;;;;;12343234;28;19937;-36
2022/12/01 22:57:47;;;;;;;;;;;2.80;99.90;;;;;;12343334;28;19934;-36
2022/12/01 23:03:49;;;;;;;;;;;2.80;99.90;;;;;;12344600;28;19933;-36
2022/12/01 23:09:50;;;;;;;;;;;2.70;99.90;;;;;;12346112;28;19926;-36
2022/12/01 23:15:52;;;;;;;;;;;2.60;99.90;;;;;;12340849;28;19930;-36
2022/12/01 23:21:54;;;;;;;;;;;2.70;99.90;;;;;;12343652;28;19933;-36
2022/12/01 23:27:58;;;;;;;;;;;2.60;99.90;;;;;;12338688;28;19941;-36
2022/12/01 23:33:59;;;;;;;;;;;2.60;99.90;;;;;;12338251;28;19926;-36
2022/12/01 23:40:07;;;;;;;;;;;2.70;99.90;;;;;;12335044;28;19930;-36
2022/12/01 23:46:08;;;;;;;;;;;2.60;99.90;;;;;;12337277;28;19926;-36
2022/12/01 23:52:14;;;;;;;;;;;2.70;99.90;;;;;;12345164;28;20026;-36
2022/12/01 23:58:16;;;;;;;;;;;2.70;99.90;;;;;;12332751;28;19937;-36
